テヘラン の空港の天気 - METARとTAF

メヘラーバード国際空港(テヘラン) ( OIII / THR ) - イラン テヘラン
飛行場実況気象(Metar)
観測時間02/28 00:00 IRST (02/27 20:30 UTC)
風向・風速北北東 2m/s
視程10km以上
天気現象
なし
気温9℃
湿度32%
気圧1020hPa
METAROIII 272030Z 03004KT CAVOK 09/M07 Q1020 A3014
過去の天気等 Google飛行場航空写真 Wunderground天気予報

過去48時間のMETAR

飛行場予報(TAF)
発表時間: 2/27 20:30 IRST (2/27 17:00 UTC)
予報対象時間: 27日21時 IRST ~ 1日3時 IRST
風向・風速北西 4m/s
視程8,000m
なし
28日4時 IRST ~ 28日6時 IRST に徐々に
視程3,000m
天気現象煙霧
28日12時 IRST ~ 28日14時 IRST に徐々に
風向・風速南西 5m/s
視程7,000m
少しの雲 雲底高度 1,070m
全天の4割程度の雲 雲底高度 3,050m
TAF OIII 271700Z 2718/2824 32004MPS 8000 NSC
BECMG 2801/2803 3000 HZ
BECMG 2809/2811 22005MPS 7000 FEW035 SCT100